sensor_id;sensor_type;location;lat;lon;timestamp;temperature;humidity
4749;DHT22;2388;53.582;9.962;2023-06-10T00:01:47;17.40;99.90
4749;DHT22;2388;53.582;9.962;2023-06-10T00:04:14;17.30;99.90
4749;DHT22;2388;53.582;9.962;2023-06-10T00:06:40;17.30;99.90
4749;DHT22;2388;53.582;9.962;2023-06-10T00:09:06;17.40;99.90
4749;DHT22;2388;53.582;9.962;2023-06-10T00:11:35;17.30;99.90
4749;DHT22;2388;53.582;9.962;2023-06-10T00:14:01;17.30;99.90
4749;DHT22;2388;53.582;9.962;2023-06-10T00:16:27;17.20;99.90
4749;DHT22;2388;53.582;9.962;2023-06-10T00:18:52;17.20;99.90
4749;DHT22;2388;53.582;9.962;2023-06-10T00:21:18;17.20;99.90
4749;DHT22;2388;53.582;9.962;2023-06-10T00:23:44;17.10;99.90
4749;DHT22;2388;53.582;9.962;2023-06-10T00:26:10;17.20;99.90
4749;DHT22;2388;53.582;9.962;2023-06-10T00:28:35;17.10;99.90
4749;DHT22;2388;53.582;9.962;2023-06-10T00:31:01;17.10;99.90
4749;DHT22;2388;53.582;9.962;2023-06-10T00:33:26;17.00;99.90
4749;DHT22;2388;53.582;9.962;2023-06-10T00:35:52;17.00;99.90
4749;DHT22;2388;53.582;9.962;2023-06-10T00:38:17;16.90;99.90
4749;DHT22;2388;53.582;9.962;2023-06-10T00:40:43;16.80;99.90
4749;DHT22;2388;53.582;9.962;2023-06-10T00:43:09;16.90;99.90
4749;DHT22;2388;53.582;9.962;2023-06-10T00:45:34;16.90;99.90
4749;DHT22;2388;53.582;9.962;2023-06-10T00:48:01;16.80;99.90
4749;DHT22;2388;53.582;9.962;2023-06-10T00:50:27;16.80;99.90
4749;DHT22;2388;53.582;9.962;2023-06-10T00:52:54;16.70;99.90
4749;DHT22;2388;53.582;9.962;2023-06-10T00:55:20;16.80;99.90
4749;DHT22;2388;53.582;9.962;2023-06-10T00:57:46;16.70;99.90
4749;DHT22;2388;53.582;9.962;2023-06-10T01:00:14;16.70;99.90
4749;DHT22;2388;53.582;9.962;2023-06-10T01:02:40;16.70;99.90
4749;DHT22;2388;53.582;9.962;2023-06-10T01:05:06;16.60;99.90
4749;DHT22;2388;53.582;9.962;2023-06-10T01:07:56;16.60;99.90
4749;DHT22;2388;53.582;9.962;2023-06-10T01:10:33;16.50;99.90
4749;DHT22;2388;53.582;9.962;2023-06-10T01:13:02;16.50;99.90
4749;DHT22;2388;53.582;9.962;2023-06-10T01:15:34;16.50;99.90
4749;DHT22;2388;53.582;9.962;2023-06-10T01:18:05;16.60;99.90
4749;DHT22;2388;53.582;9.962;2023-06-10T01:20:34;16.40;99.90
4749;DHT22;2388;53.582;9.962;2023-06-10T01:23:02;16.40;99.90
4749;DHT22;2388;53.582;9.962;2023-06-10T01:25:29;16.40;99.90
4749;DHT22;2388;53.582;9.962;2023-06-10T01:30:59;16.50;99.90
4749;DHT22;2388;53.582;9.962;2023-06-10T01:33:31;16.40;99.90
4749;DHT22;2388;53.582;9.962;2023-06-10T01:35:59;16.40;99.90
4749;DHT22;2388;53.582;9.962;2023-06-10T01:38:26;16.30;99.90
4749;DHT22;2388;53.582;9.962;2023-06-10T01:40:55;16.30;99.90
4749;DHT22;2388;53.582;9.962;2023-06-10T01:43:21;16.30;99.90
4749;DHT22;2388;53.582;9.962;2023-06-10T01:45:47;16.30;99.90
4749;DHT22;2388;53.582;9.962;2023-06-10T01:48:12;16.30;99.90
4749;DHT22;2388;53.582;9.962;2023-06-10T01:50:38;16.30;99.90
4749;DHT22;2388;53.582;9.962;2023-06-10T01:53:04;16.20;99.90
4749;DHT22;2388;53.582;9.962;2023-06-10T01:55:30;16.10;99.90
4749;DHT22;2388;53.582;9.962;2023-06-10T01:57:56;16.20;99.90
4749;DHT22;2388;53.582;9.962;2023-06-10T02:00:22;16.20;99.90
4749;DHT22;2388;53.582;9.962;2023-06-10T02:02:47;16.20;99.90
4749;DHT22;2388;53.582;9.962;2023-06-10T02:05:13;16.10;99.90
4749;DHT22;2388;53.582;9.962;2023-06-10T02:07:38;16.10;99.90
4749;DHT22;2388;53.582;9.962;2023-06-10T02:10:05;16.10;99.90
4749;DHT22;2388;53.582;9.962;2023-06-10T02:12:31;16.10;99.90
4749;DHT22;2388;53.582;9.962;2023-06-10T02:14:57;16.10;99.90
4749;DHT22;2388;53.582;9.962;2023-06-10T02:17:22;16.10;99.90
4749;DHT22;2388;53.582;9.962;2023-06-10T02:19:48;16.10;99.90
4749;DHT22;2388;53.582;9.962;2023-06-10T02:22:21;16.00;99.90
4749;DHT22;2388;53.582;9.962;2023-06-10T02:24:47;16.10;99.90
4749;DHT22;2388;53.582;9.962;2023-06-10T02:27:12;16.10;99.90
4749;DHT22;2388;53.582;9.962;2023-06-10T02:29:38;16.10;99.90
4749;DHT22;2388;53.582;9.962;2023-06-10T02:32:04;16.10;99.90
4749;DHT22;2388;53.582;9.962;2023-06-10T02:34:29;16.10;99.90
4749;DHT22;2388;53.582;9.962;2023-06-10T02:36:55;16.10;99.90
4749;DHT22;2388;53.582;9.962;2023-06-10T02:39:22;16.10;99.90
4749;DHT22;2388;53.582;9.962;2023-06-10T02:41:47;16.10;99.90
4749;DHT22;2388;53.582;9.962;2023-06-10T02:44:13;16.10;99.90
4749;DHT22;2388;53.582;9.962;2023-06-10T02:46:38;15.90;99.90
4749;DHT22;2388;53.582;9.962;2023-06-10T02:49:04;15.90;99.90
4749;DHT22;2388;53.582;9.962;2023-06-10T02:51:29;15.90;99.90
4749;DHT22;2388;53.582;9.962;2023-06-10T02:53:55;15.90;99.90
4749;DHT22;2388;53.582;9.962;2023-06-10T02:56:20;15.90;99.90
4749;DHT22;2388;53.582;9.962;2023-06-10T02:58:47;15.90;99.90
4749;DHT22;2388;53.582;9.962;2023-06-10T03:01:14;15.90;99.90
4749;DHT22;2388;53.582;9.962;2023-06-10T03:03:40;15.90;99.90
4749;DHT22;2388;53.582;9.962;2023-06-10T03:06:10;15.90;99.90
4749;DHT22;2388;53.582;9.962;2023-06-10T03:08:36;16.00;99.90
4749;DHT22;2388;53.582;9.962;2023-06-10T03:11:02;16.00;99.90
4749;DHT22;2388;53.582;9.962;2023-06-10T03:13:27;15.90;99.90
4749;DHT22;2388;53.582;9.962;2023-06-10T03:15:53;15.90;99.90
4749;DHT22;2388;53.582;9.962;2023-06-10T03:18:18;15.90;99.90
4749;DHT22;2388;53.582;9.962;2023-06-10T03:20:44;15.90;99.90
4749;DHT22;2388;53.582;9.962;2023-06-10T03:23:10;15.80;99.90
4749;DHT22;2388;53.582;9.962;2023-06-10T03:25:35;15.90;99.90
4749;DHT22;2388;53.582;9.962;2023-06-10T03:28:01;15.90;99.90
4749;DHT22;2388;53.582;9.962;2023-06-10T03:30:27;15.90;99.90
4749;DHT22;2388;53.582;9.962;2023-06-10T03:32:53;15.80;99.90
4749;DHT22;2388;53.582;9.962;2023-06-10T03:35:18;15.80;99.90
4749;DHT22;2388;53.582;9.962;2023-06-10T03:37:44;15.70;99.90
4749;DHT22;2388;53.582;9.962;2023-06-10T03:40:09;15.80;99.90
4749;DHT22;2388;53.582;9.962;2023-06-10T03:42:35;15.80;99.90
4749;DHT22;2388;53.582;9.962;2023-06-10T03:45:01;15.80;99.90
4749;DHT22;2388;53.582;9.962;2023-06-10T03:47:36;15.80;99.90
4749;DHT22;2388;53.582;9.962;2023-06-10T03:50:03;15.80;99.90
4749;DHT22;2388;53.582;9.962;2023-06-10T03:52:29;15.80;99.90
4749;DHT22;2388;53.582;9.962;2023-06-10T03:54:54;15.80;99.90
4749;DHT22;2388;53.582;9.962;2023-06-10T03:57:20;15.80;99.90
4749;DHT22;2388;53.582;9.962;2023-06-10T03:59:45;15.80;99.90
4749;DHT22;2388;53.582;9.962;2023-06-10T04:02:11;15.80;99.90
4749;DHT22;2388;53.582;9.962;2023-06-10T04:04:36;15.80;99.90
4749;DHT22;2388;53.582;9.962;2023-06-10T04:07:03;15.80;99.90
4749;DHT22;2388;53.582;9.962;2023-06-10T04:09:29;15.80;99.90
4749;DHT22;2388;53.582;9.962;2023-06-10T04:11:54;15.80;99.90
4749;DHT22;2388;53.582;9.962;2023-06-10T04:14:20;15.80;99.90
4749;DHT22;2388;53.582;9.962;2023-06-10T04:16:45;15.80;99.90
4749;DHT22;2388;53.582;9.962;2023-06-10T04:19:11;15.80;99.90
4749;DHT22;2388;53.582;9.962;2023-06-10T04:21:37;15.80;99.90
4749;DHT22;2388;53.582;9.962;2023-06-10T04:24:02;15.90;99.90
4749;DHT22;2388;53.582;9.962;2023-06-10T04:26:28;15.90;99.90
4749;DHT22;2388;53.582;9.962;2023-06-10T04:28:54;15.90;99.90
4749;DHT22;2388;53.582;9.962;2023-06-10T04:31:19;15.90;99.90
4749;DHT22;2388;53.582;9.962;2023-06-10T04:33:45;15.90;99.90
4749;DHT22;2388;53.582;9.962;2023-06-10T04:36:11;15.80;99.90
4749;DHT22;2388;53.582;9.962;2023-06-10T04:38:37;15.90;99.90
4749;DHT22;2388;53.582;9.962;2023-06-10T04:41:02;15.90;99.90
4749;DHT22;2388;53.582;9.962;2023-06-10T04:43:28;15.90;99.90
4749;DHT22;2388;53.582;9.962;2023-06-10T04:45:55;16.00;99.90
4749;DHT22;2388;53.582;9.962;2023-06-10T04:48:20;16.10;99.90
4749;DHT22;2388;53.582;9.962;2023-06-10T04:50:46;16.20;99.90
4749;DHT22;2388;53.582;9.962;2023-06-10T04:53:11;16.10;99.90
4749;DHT22;2388;53.582;9.962;2023-06-10T04:55:37;16.10;99.90
4749;DHT22;2388;53.582;9.962;2023-06-10T04:58:02;16.10;99.90
4749;DHT22;2388;53.582;9.962;2023-06-10T05:00:28;16.10;99.90
4749;DHT22;2388;53.582;9.962;2023-06-10T05:02:53;16.20;99.90
4749;DHT22;2388;53.582;9.962;2023-06-10T05:05:19;16.20;99.90
4749;DHT22;2388;53.582;9.962;2023-06-10T05:07:44;16.20;99.90
4749;DHT22;2388;53.582;9.962;2023-06-10T05:10:10;16.30;99.90
4749;DHT22;2388;53.582;9.962;2023-06-10T05:12:38;16.30;99.90
4749;DHT22;2388;53.582;9.962;2023-06-10T05:15:05;16.30;99.90
4749;DHT22;2388;53.582;9.962;2023-06-10T05:17:31;16.40;99.90
4749;DHT22;2388;53.582;9.962;2023-06-10T05:19:56;16.30;99.90
4749;DHT22;2388;53.582;9.962;2023-06-10T05:22:22;16.40;99.90
4749;DHT22;2388;53.582;9.962;2023-06-10T05:24:50;16.40;99.90
4749;DHT22;2388;53.582;9.962;2023-06-10T05:27:16;16.40;99.90
4749;DHT22;2388;53.582;9.962;2023-06-10T05:29:42;16.40;99.90
4749;DHT22;2388;53.582;9.962;2023-06-10T05:32:08;16.50;99.90
4749;DHT22;2388;53.582;9.962;2023-06-10T05:34:33;16.50;99.90
4749;DHT22;2388;53.582;9.962;2023-06-10T05:36:59;16.60;99.90
4749;DHT22;2388;53.582;9.962;2023-06-10T05:39:25;16.50;99.90
4749;DHT22;2388;53.582;9.962;2023-06-10T05:41:50;16.60;99.90
4749;DHT22;2388;53.582;9.962;2023-06-10T05:44:16;16.60;99.90
4749;DHT22;2388;53.582;9.962;2023-06-10T05:46:41;16.60;99.90
4749;DHT22;2388;53.582;9.962;2023-06-10T05:49:07;16.70;99.90
4749;DHT22;2388;53.582;9.962;2023-06-10T05:51:32;16.70;99.90
4749;DHT22;2388;53.582;9.962;2023-06-10T05:53:57;16.80;99.90
4749;DHT22;2388;53.582;9.962;2023-06-10T05:56:23;16.70;99.90
4749;DHT22;2388;53.582;9.962;2023-06-10T05:58:49;16.80;99.90
4749;DHT22;2388;53.582;9.962;2023-06-10T06:01:15;16.80;99.90
4749;DHT22;2388;53.582;9.962;2023-06-10T06:03:41;16.90;99.90
4749;DHT22;2388;53.582;9.962;2023-06-10T06:06:06;17.00;99.90
4749;DHT22;2388;53.582;9.962;2023-06-10T06:08:32;16.90;99.90
4749;DHT22;2388;53.582;9.962;2023-06-10T06:10:57;16.90;99.90
4749;DHT22;2388;53.582;9.962;2023-06-10T06:13:23;17.00;99.90
4749;DHT22;2388;53.582;9.962;2023-06-10T06:15:49;17.10;99.90
4749;DHT22;2388;53.582;9.962;2023-06-10T06:18:14;17.10;99.90
4749;DHT22;2388;53.582;9.962;2023-06-10T06:20:40;17.10;99.90
4749;DHT22;2388;53.582;9.962;2023-06-10T06:23:06;17.20;99.90
4749;DHT22;2388;53.582;9.962;2023-06-10T06:25:31;17.10;99.90
4749;DHT22;2388;53.582;9.962;2023-06-10T06:27:57;17.20;99.90
4749;DHT22;2388;53.582;9.962;2023-06-10T06:30:22;17.10;99.90
4749;DHT22;2388;53.582;9.962;2023-06-10T06:32:48;17.20;99.90
4749;DHT22;2388;53.582;9.962;2023-06-10T06:35:13;17.30;99.90
4749;DHT22;2388;53.582;9.962;2023-06-10T06:37:39;17.30;99.90
4749;DHT22;2388;53.582;9.962;2023-06-10T06:40:05;17.40;99.90
4749;DHT22;2388;53.582;9.962;2023-06-10T06:42:30;17.40;99.90
4749;DHT22;2388;53.582;9.962;2023-06-10T06:44:56;17.40;99.90
4749;DHT22;2388;53.582;9.962;2023-06-10T06:47:21;17.40;99.90
4749;DHT22;2388;53.582;9.962;2023-06-10T06:49:47;17.50;99.90
4749;DHT22;2388;53.582;9.962;2023-06-10T06:52:13;17.50;99.90
4749;DHT22;2388;53.582;9.962;2023-06-10T06:54:39;17.60;99.90
4749;DHT22;2388;53.582;9.962;2023-06-10T06:57:04;17.60;99.90
4749;DHT22;2388;53.582;9.962;2023-06-10T06:59:31;17.60;99.90
4749;DHT22;2388;53.582;9.962;2023-06-10T07:01:56;17.60;99.90
4749;DHT22;2388;53.582;9.962;2023-06-10T07:04:22;17.60;99.90
4749;DHT22;2388;53.582;9.962;2023-06-10T07:06:48;17.70;99.90
4749;DHT22;2388;53.582;9.962;2023-06-10T07:09:13;17.80;99.90
4749;DHT22;2388;53.582;9.962;2023-06-10T07:11:39;17.80;99.90
4749;DHT22;2388;53.582;9.962;2023-06-10T07:14:05;17.90;99.90
4749;DHT22;2388;53.582;9.962;2023-06-10T07:16:30;18.00;99.90
4749;DHT22;2388;53.582;9.962;2023-06-10T07:18:56;18.00;99.90
4749;DHT22;2388;53.582;9.962;2023-06-10T07:21:21;18.00;99.90
4749;DHT22;2388;53.582;9.962;2023-06-10T07:23:48;18.00;99.90
4749;DHT22;2388;53.582;9.962;2023-06-10T07:26:14;18.10;99.90
4749;DHT22;2388;53.582;9.962;2023-06-10T07:28:40;18.10;99.90
4749;DHT22;2388;53.582;9.962;2023-06-10T07:31:07;18.10;99.90
4749;DHT22;2388;53.582;9.962;2023-06-10T07:33:32;18.20;99.90
4749;DHT22;2388;53.582;9.962;2023-06-10T07:35:58;18.30;99.90
4749;DHT22;2388;53.582;9.962;2023-06-10T07:38:27;18.30;99.90
4749;DHT22;2388;53.582;9.962;2023-06-10T07:40:53;18.30;99.90
4749;DHT22;2388;53.582;9.962;2023-06-10T07:43:18;18.40;99.90
4749;DHT22;2388;53.582;9.962;2023-06-10T07:45:44;18.40;99.90
4749;DHT22;2388;53.582;9.962;2023-06-10T07:48:10;18.40;99.90
4749;DHT22;2388;53.582;9.962;2023-06-10T07:50:36;18.40;99.90
4749;DHT22;2388;53.582;9.962;2023-06-10T07:53:01;18.50;99.90
4749;DHT22;2388;53.582;9.962;2023-06-10T07:55:27;18.50;99.90
4749;DHT22;2388;53.582;9.962;2023-06-10T07:57:53;18.50;99.90
4749;DHT22;2388;53.582;9.962;2023-06-10T08:00:19;18.70;99.90
4749;DHT22;2388;53.582;9.962;2023-06-10T08:02:45;18.70;99.90
4749;DHT22;2388;53.582;9.962;2023-06-10T08:05:10;18.80;99.90
4749;DHT22;2388;53.582;9.962;2023-06-10T08:07:36;18.80;99.90
4749;DHT22;2388;53.582;9.962;2023-06-10T08:10:02;18.80;99.90
4749;DHT22;2388;53.582;9.962;2023-06-10T08:12:28;18.80;99.90
4749;DHT22;2388;53.582;9.962;2023-06-10T08:14:53;18.90;99.90
4749;DHT22;2388;53.582;9.962;2023-06-10T08:17:20;18.90;99.90
4749;DHT22;2388;53.582;9.962;2023-06-10T08:19:45;19.00;99.90
4749;DHT22;2388;53.582;9.962;2023-06-10T08:22:11;19.00;99.90
4749;DHT22;2388;53.582;9.962;2023-06-10T08:24:37;19.00;99.90
4749;DHT22;2388;53.582;9.962;2023-06-10T08:27:02;19.10;99.90
4749;DHT22;2388;53.582;9.962;2023-06-10T08:29:28;19.10;99.90
4749;DHT22;2388;53.582;9.962;2023-06-10T08:31:55;19.20;99.90
4749;DHT22;2388;53.582;9.962;2023-06-10T08:34:20;19.20;99.90
4749;DHT22;2388;53.582;9.962;2023-06-10T08:36:46;19.30;99.90
4749;DHT22;2388;53.582;9.962;2023-06-10T08:39:11;19.30;99.90
4749;DHT22;2388;53.582;9.962;2023-06-10T08:41:42;19.30;99.90
4749;DHT22;2388;53.582;9.962;2023-06-10T08:44:17;19.40;99.90
4749;DHT22;2388;53.582;9.962;2023-06-10T08:46:46;19.40;99.90
4749;DHT22;2388;53.582;9.962;2023-06-10T08:49:17;19.50;99.90
4749;DHT22;2388;53.582;9.962;2023-06-10T08:51:43;19.60;99.90
4749;DHT22;2388;53.582;9.962;2023-06-10T08:54:21;19.60;99.90
4749;DHT22;2388;53.582;9.962;2023-06-10T08:56:49;19.60;99.90
4749;DHT22;2388;53.582;9.962;2023-06-10T08:59:16;19.60;99.90
4749;DHT22;2388;53.582;9.962;2023-06-10T09:01:43;19.70;99.90
4749;DHT22;2388;53.582;9.962;2023-06-10T09:04:10;19.70;99.90
4749;DHT22;2388;53.582;9.962;2023-06-10T09:06:35;19.80;99.90
4749;DHT22;2388;53.582;9.962;2023-06-10T09:09:02;19.90;99.90
4749;DHT22;2388;53.582;9.962;2023-06-10T09:11:28;19.90;99.90
4749;DHT22;2388;53.582;9.962;2023-06-10T09:13:53;19.90;99.90
4749;DHT22;2388;53.582;9.962;2023-06-10T09:16:19;20.00;99.90
4749;DHT22;2388;53.582;9.962;2023-06-10T09:18:45;20.10;99.90
4749;DHT22;2388;53.582;9.962;2023-06-10T09:21:10;20.20;99.90
4749;DHT22;2388;53.582;9.962;2023-06-10T09:23:37;20.20;99.90
4749;DHT22;2388;53.582;9.962;2023-06-10T09:26:02;20.20;99.90
4749;DHT22;2388;53.582;9.962;2023-06-10T09:28:33;20.30;99.90
4749;DHT22;2388;53.582;9.962;2023-06-10T09:31:03;20.30;99.90
4749;DHT22;2388;53.582;9.962;2023-06-10T09:33:29;20.40;99.90
4749;DHT22;2388;53.582;9.962;2023-06-10T09:35:55;20.50;99.90
4749;DHT22;2388;53.582;9.962;2023-06-10T09:38:22;20.60;99.90
4749;DHT22;2388;53.582;9.962;2023-06-10T09:40:49;20.50;99.90
4749;DHT22;2388;53.582;9.962;2023-06-10T09:43:15;20.60;99.90
4749;DHT22;2388;53.582;9.962;2023-06-10T09:45:40;20.70;99.90
4749;DHT22;2388;53.582;9.962;2023-06-10T09:48:06;20.70;99.90
4749;DHT22;2388;53.582;9.962;2023-06-10T09:50:42;20.80;99.90
4749;DHT22;2388;53.582;9.962;2023-06-10T09:53:09;20.90;99.90
4749;DHT22;2388;53.582;9.962;2023-06-10T09:55:38;20.90;99.90
4749;DHT22;2388;53.582;9.962;2023-06-10T09:58:04;21.00;99.90
4749;DHT22;2388;53.582;9.962;2023-06-10T10:00:32;21.00;99.90
4749;DHT22;2388;53.582;9.962;2023-06-10T10:02:58;21.10;99.90
4749;DHT22;2388;53.582;9.962;2023-06-10T10:05:24;21.10;99.90
4749;DHT22;2388;53.582;9.962;2023-06-10T10:07:50;21.20;99.90
4749;DHT22;2388;53.582;9.962;2023-06-10T10:10:17;21.20;99.90
4749;DHT22;2388;53.582;9.962;2023-06-10T10:12:48;21.20;99.90
4749;DHT22;2388;53.582;9.962;2023-06-10T10:15:17;21.30;99.90
4749;DHT22;2388;53.582;9.962;2023-06-10T10:17:52;21.30;99.90
4749;DHT22;2388;53.582;9.962;2023-06-10T10:20:20;21.40;99.90
4749;DHT22;2388;53.582;9.962;2023-06-10T10:22:49;21.50;99.90
4749;DHT22;2388;53.582;9.962;2023-06-10T10:25:24;21.60;99.90
4749;DHT22;2388;53.582;9.962;2023-06-10T10:28:02;21.60;99.90
4749;DHT22;2388;53.582;9.962;2023-06-10T10:30:37;21.60;99.90
4749;DHT22;2388;53.582;9.962;2023-06-10T10:33:25;21.60;99.90
4749;DHT22;2388;53.582;9.962;2023-06-10T10:35:54;21.70;99.90
4749;DHT22;2388;53.582;9.962;2023-06-10T10:38:21;21.80;99.90
4749;DHT22;2388;53.582;9.962;2023-06-10T10:40:47;22.00;99.90
4749;DHT22;2388;53.582;9.962;2023-06-10T10:43:14;21.80;99.90
4749;DHT22;2388;53.582;9.962;2023-06-10T10:45:40;21.80;99.90
4749;DHT22;2388;53.582;9.962;2023-06-10T10:48:08;22.00;99.90
4749;DHT22;2388;53.582;9.962;2023-06-10T10:50:38;22.00;99.90
4749;DHT22;2388;53.582;9.962;2023-06-10T10:53:05;22.10;99.90
4749;DHT22;2388;53.582;9.962;2023-06-10T10:55:30;22.20;99.90
4749;DHT22;2388;53.582;9.962;2023-06-10T10:58:06;22.10;99.90
4749;DHT22;2388;53.582;9.962;2023-06-10T11:00:34;22.20;99.90
4749;DHT22;2388;53.582;9.962;2023-06-10T11:03:05;22.20;99.90
4749;DHT22;2388;53.582;9.962;2023-06-10T11:05:45;22.30;99.90
4749;DHT22;2388;53.582;9.962;2023-06-10T11:08:15;22.40;99.90
4749;DHT22;2388;53.582;9.962;2023-06-10T11:10:42;22.40;99.90
4749;DHT22;2388;53.582;9.962;2023-06-10T11:13:18;22.30;99.90
4749;DHT22;2388;53.582;9.962;2023-06-10T11:15:45;22.20;99.90
4749;DHT22;2388;53.582;9.962;2023-06-10T11:18:22;22.20;99.90
4749;DHT22;2388;53.582;9.962;2023-06-10T11:31:31;22.60;99.90
4749;DHT22;2388;53.582;9.962;2023-06-10T11:36:27;22.80;99.90
4749;DHT22;2388;53.582;9.962;2023-06-10T11:38:58;23.00;99.90
4749;DHT22;2388;53.582;9.962;2023-06-10T11:41:25;23.00;99.90
4749;DHT22;2388;53.582;9.962;2023-06-10T11:43:54;23.00;99.90
4749;DHT22;2388;53.582;9.962;2023-06-10T11:46:22;23.00;99.90
4749;DHT22;2388;53.582;9.962;2023-06-10T11:48:55;23.30;99.90
4749;DHT22;2388;53.582;9.962;2023-06-10T11:51:21;23.30;99.90
4749;DHT22;2388;53.582;9.962;2023-06-10T11:53:50;23.30;99.90
4749;DHT22;2388;53.582;9.962;2023-06-10T11:56:22;23.30;99.90
4749;DHT22;2388;53.582;9.962;2023-06-10T11:58:53;23.10;99.90
4749;DHT22;2388;53.582;9.962;2023-06-10T12:01:23;23.10;99.90
4749;DHT22;2388;53.582;9.962;2023-06-10T12:04:14;23.20;99.90
4749;DHT22;2388;53.582;9.962;2023-06-10T12:06:43;23.30;99.90
4749;DHT22;2388;53.582;9.962;2023-06-10T12:09:15;23.50;99.90
4749;DHT22;2388;53.582;9.962;2023-06-10T12:11:42;23.90;99.90
4749;DHT22;2388;53.582;9.962;2023-06-10T12:14:09;23.80;99.90
4749;DHT22;2388;53.582;9.962;2023-06-10T12:16:34;23.80;99.90
4749;DHT22;2388;53.582;9.962;2023-06-10T12:19:04;24.00;99.90
4749;DHT22;2388;53.582;9.962;2023-06-10T12:21:31;24.10;99.90
4749;DHT22;2388;53.582;9.962;2023-06-10T12:24:10;24.40;99.90
4749;DHT22;2388;53.582;9.962;2023-06-10T12:26:44;24.40;99.90
4749;DHT22;2388;53.582;9.962;2023-06-10T12:32:03;24.50;99.90
4749;DHT22;2388;53.582;9.962;2023-06-10T12:34:38;24.50;99.90
4749;DHT22;2388;53.582;9.962;2023-06-10T12:37:06;24.80;99.90
4749;DHT22;2388;53.582;9.962;2023-06-10T12:39:33;24.80;99.90
4749;DHT22;2388;53.582;9.962;2023-06-10T12:41:59;24.80;99.90
4749;DHT22;2388;53.582;9.962;2023-06-10T12:44:34;24.80;99.90
4749;DHT22;2388;53.582;9.962;2023-06-10T12:47:06;24.80;99.90
4749;DHT22;2388;53.582;9.962;2023-06-10T12:49:32;24.80;99.90
4749;DHT22;2388;53.582;9.962;2023-06-10T12:51:58;24.80;99.90
4749;DHT22;2388;53.582;9.962;2023-06-10T12:54:23;25.00;99.90
4749;DHT22;2388;53.582;9.962;2023-06-10T12:56:49;24.90;99.90
4749;DHT22;2388;53.582;9.962;2023-06-10T12:59:14;25.00;99.90
4749;DHT22;2388;53.582;9.962;2023-06-10T13:01:40;25.20;99.90
4749;DHT22;2388;53.582;9.962;2023-06-10T13:04:06;25.50;99.90
4749;DHT22;2388;53.582;9.962;2023-06-10T13:06:32;25.30;99.90
4749;DHT22;2388;53.582;9.962;2023-06-10T13:09:02;25.30;99.90
4749;DHT22;2388;53.582;9.962;2023-06-10T13:11:28;25.20;99.90
4749;DHT22;2388;53.582;9.962;2023-06-10T13:13:53;25.30;99.90
4749;DHT22;2388;53.582;9.962;2023-06-10T13:16:19;25.20;99.90
4749;DHT22;2388;53.582;9.962;2023-06-10T13:18:45;25.20;99.90
4749;DHT22;2388;53.582;9.962;2023-06-10T13:21:10;25.20;99.90
4749;DHT22;2388;53.582;9.962;2023-06-10T13:23:35;25.10;99.90
4749;DHT22;2388;53.582;9.962;2023-06-10T13:26:01;25.60;99.90
4749;DHT22;2388;53.582;9.962;2023-06-10T13:28:28;25.70;99.90
4749;DHT22;2388;53.582;9.962;2023-06-10T13:30:53;25.50;99.90
4749;DHT22;2388;53.582;9.962;2023-06-10T13:33:19;25.40;99.90
4749;DHT22;2388;53.582;9.962;2023-06-10T13:35:44;25.20;99.90
4749;DHT22;2388;53.582;9.962;2023-06-10T13:38:10;25.20;99.90
4749;DHT22;2388;53.582;9.962;2023-06-10T13:40:36;25.10;99.90
4749;DHT22;2388;53.582;9.962;2023-06-10T13:43:01;24.90;99.90
4749;DHT22;2388;53.582;9.962;2023-06-10T13:45:27;25.10;99.90
4749;DHT22;2388;53.582;9.962;2023-06-10T13:47:53;25.20;99.90
4749;DHT22;2388;53.582;9.962;2023-06-10T13:50:18;25.10;99.90
4749;DHT22;2388;53.582;9.962;2023-06-10T13:52:44;25.10;99.90
4749;DHT22;2388;53.582;9.962;2023-06-10T13:55:10;25.30;99.90
4749;DHT22;2388;53.582;9.962;2023-06-10T13:57:35;25.30;99.90
4749;DHT22;2388;53.582;9.962;2023-06-10T14:00:01;26.00;99.90
4749;DHT22;2388;53.582;9.962;2023-06-10T14:02:27;25.90;99.90
4749;DHT22;2388;53.582;9.962;2023-06-10T14:04:52;25.70;99.90
4749;DHT22;2388;53.582;9.962;2023-06-10T14:07:18;25.60;99.90
4749;DHT22;2388;53.582;9.962;2023-06-10T14:09:43;25.60;99.90
4749;DHT22;2388;53.582;9.962;2023-06-10T14:12:09;25.40;99.90
4749;DHT22;2388;53.582;9.962;2023-06-10T14:14:36;25.50;99.90
4749;DHT22;2388;53.582;9.962;2023-06-10T14:17:02;25.30;99.90
4749;DHT22;2388;53.582;9.962;2023-06-10T14:19:28;25.50;99.90
4749;DHT22;2388;53.582;9.962;2023-06-10T14:21:54;25.60;99.90
4749;DHT22;2388;53.582;9.962;2023-06-10T14:24:20;25.70;99.90
4749;DHT22;2388;53.582;9.962;2023-06-10T14:26:46;25.30;99.90
4749;DHT22;2388;53.582;9.962;2023-06-10T14:29:11;25.40;99.90
4749;DHT22;2388;53.582;9.962;2023-06-10T14:31:39;25.20;99.90
4749;DHT22;2388;53.582;9.962;2023-06-10T14:34:05;25.20;99.90
4749;DHT22;2388;53.582;9.962;2023-06-10T14:36:33;25.20;99.90
4749;DHT22;2388;53.582;9.962;2023-06-10T14:38:58;25.10;99.90
4749;DHT22;2388;53.582;9.962;2023-06-10T14:41:24;24.90;99.90
4749;DHT22;2388;53.582;9.962;2023-06-10T14:43:50;24.80;99.90
4749;DHT22;2388;53.582;9.962;2023-06-10T14:46:15;24.80;99.90
4749;DHT22;2388;53.582;9.962;2023-06-10T14:48:41;24.60;99.90
4749;DHT22;2388;53.582;9.962;2023-06-10T14:51:06;24.60;99.90
4749;DHT22;2388;53.582;9.962;2023-06-10T14:53:32;24.30;99.90
4749;DHT22;2388;53.582;9.962;2023-06-10T14:55:57;24.60;99.90
4749;DHT22;2388;53.582;9.962;2023-06-10T14:58:23;24.50;99.90
4749;DHT22;2388;53.582;9.962;2023-06-10T15:00:48;24.60;99.90
4749;DHT22;2388;53.582;9.962;2023-06-10T15:03:14;24.60;99.90
4749;DHT22;2388;53.582;9.962;2023-06-10T15:05:39;24.60;99.90
4749;DHT22;2388;53.582;9.962;2023-06-10T15:08:05;24.40;99.90
4749;DHT22;2388;53.582;9.962;2023-06-10T15:10:31;24.50;99.90
4749;DHT22;2388;53.582;9.962;2023-06-10T15:12:57;24.60;99.90
4749;DHT22;2388;53.582;9.962;2023-06-10T15:15:24;24.50;99.90
4749;DHT22;2388;53.582;9.962;2023-06-10T15:17:50;24.60;99.90
4749;DHT22;2388;53.582;9.962;2023-06-10T15:20:16;24.50;99.90
4749;DHT22;2388;53.582;9.962;2023-06-10T15:22:42;24.60;99.90
4749;DHT22;2388;53.582;9.962;2023-06-10T15:25:07;24.60;99.90
4749;DHT22;2388;53.582;9.962;2023-06-10T15:27:33;24.60;99.90
4749;DHT22;2388;53.582;9.962;2023-06-10T15:29:58;24.40;99.90
4749;DHT22;2388;53.582;9.962;2023-06-10T15:32:24;24.50;99.90
4749;DHT22;2388;53.582;9.962;2023-06-10T15:34:49;24.50;99.90
4749;DHT22;2388;53.582;9.962;2023-06-10T15:37:18;24.50;99.90
4749;DHT22;2388;53.582;9.962;2023-06-10T15:39:43;24.50;99.90
4749;DHT22;2388;53.582;9.962;2023-06-10T15:42:09;24.60;99.90
4749;DHT22;2388;53.582;9.962;2023-06-10T15:44:35;24.60;99.90
4749;DHT22;2388;53.582;9.962;2023-06-10T15:47:00;24.60;99.90
4749;DHT22;2388;53.582;9.962;2023-06-10T15:49:26;24.50;99.90
4749;DHT22;2388;53.582;9.962;2023-06-10T15:51:51;24.40;99.90
4749;DHT22;2388;53.582;9.962;2023-06-10T15:54:16;24.40;99.90
4749;DHT22;2388;53.582;9.962;2023-06-10T15:56:42;24.30;99.90
4749;DHT22;2388;53.582;9.962;2023-06-10T15:59:07;24.30;99.90
4749;DHT22;2388;53.582;9.962;2023-06-10T16:01:34;24.30;99.90
4749;DHT22;2388;53.582;9.962;2023-06-10T16:03:59;24.20;99.90
4749;DHT22;2388;53.582;9.962;2023-06-10T16:06:25;24.20;99.90
4749;DHT22;2388;53.582;9.962;2023-06-10T16:08:50;24.20;99.90
4749;DHT22;2388;53.582;9.962;2023-06-10T16:11:16;24.10;99.90
4749;DHT22;2388;53.582;9.962;2023-06-10T16:13:41;24.10;99.90
4749;DHT22;2388;53.582;9.962;2023-06-10T16:16:07;24.10;99.90
4749;DHT22;2388;53.582;9.962;2023-06-10T16:18:33;24.10;99.90